»·PEaware :: SWA821 KSAN-KMRY

SWA821 :: KSAN-KMRY

FLIGHT INFORMATION

Flight Status: Arrived
Operator:
Southwest Airlines
More flights by this operator :: More flights under this callsign
Pilot: Ben L. (6391)
Aircraft: BOEING 737-200
(B732)
More flights by this aircraft type
Origin: KSAN San Diego Intl-Lindbergh
United States
Destination: KMRY Monterey Peninsula
United States
More flights between these airports :: More routes between these airports
Route: PEBLE6 SLI J88 RZS J501 BSR PEBBS1
File this flight plan on PilotEdge
Remarks:
Altitude:
(Current/Filed)
32,000ft
Speed:
(Current/Filed)
450kts
Departed: 04-May-18 04:30 PM
Arrived: 04-May-18 05:28 PM
Distance/Time
Traveled:
326nm/0:58
Distance/Time
To Go:
Arrived

Flight Plot

Page will automatically refresh every two minutes.

Flight plan parsing failed; only flown route is shown


Map Options




Map Legend


Flown Route
Filed Route
Departure Airport
Arrival Airport
Navaid (VOR, NDB)
Fix

Horizontal Profiles

Position Reports

Time Latitude Longitude Heading Altitude Ground
Speed
04-May-18 16:01 32.733231 -117.196057 200 26ft 0kts
04-May-18 16:02 32.733231 -117.196057 200 26ft 0kts
04-May-18 16:03 32.733231 -117.196057 200 26ft 0kts
04-May-18 16:04 32.733231 -117.196057 200 26ft 0kts
04-May-18 16:05 32.733231 -117.196057 200 26ft 0kts
04-May-18 16:06 32.733231 -117.196057 200 26ft 0kts
04-May-18 16:07 32.733231 -117.196057 200 26ft 0kts
04-May-18 16:08 32.733231 -117.196057 200 26ft 0kts
04-May-18 16:09 32.733231 -117.196057 200 26ft 0kts
04-May-18 16:10 32.733231 -117.196057 200 26ft 0kts
04-May-18 16:11 32.733231 -117.196057 200 26ft 0kts
04-May-18 16:12 32.733231 -117.196057 200 26ft 0kts
04-May-18 16:13 32.733231 -117.196057 200 26ft 0kts
04-May-18 16:14 32.733231 -117.196057 200 26ft 0kts
04-May-18 16:15 32.733231 -117.196057 200 26ft 0kts
04-May-18 16:16 32.733227 -117.196058 200 26ft 0kts
04-May-18 16:17 32.733596 -117.196213 118 26ft 2kts
04-May-18 16:18 32.733642 -117.196379 103 26ft 0kts
04-May-18 16:19 32.733642 -117.196379 104 26ft 0kts
04-May-18 16:20 32.733642 -117.196379 104 26ft 0kts
04-May-18 16:21 32.733627 -117.196074 90 26ft 7kts
04-May-18 16:22 32.732492 -117.189482 102 26ft 26kts
04-May-18 16:23 32.730411 -117.180972 107 26ft 27kts
04-May-18 16:24 32.729494 -117.176839 79 26ft 0kts
04-May-18 16:25 32.729494 -117.176839 79 26ft 0kts
04-May-18 16:26 32.729494 -117.176839 79 26ft 0kts
04-May-18 16:27 32.729494 -117.176839 79 26ft 0kts
04-May-18 16:28 32.729494 -117.176839 79 26ft 0kts
04-May-18 16:29 32.729495 -117.176835 79 26ft 0kts
04-May-18 16:30 32.733223 -117.188244 287 27ft 141kts
04-May-18 16:31 32.747227 -117.245933 294 2179ft 222kts
04-May-18 16:32 32.773883 -117.314269 296 5009ft 256kts
04-May-18 16:33 32.811723 -117.391265 304 7666ft 283kts
04-May-18 16:34 32.855905 -117.469848 321 10169ft 297kts
04-May-18 16:35 32.926018 -117.523797 329 12505ft 309kts
04-May-18 16:36 32.997640 -117.579654 320 14665ft 319kts
04-May-18 16:37 33.063624 -117.657274 309 15633ft 361kts
04-May-18 16:38 33.121165 -117.745352 306 16951ft 376kts
04-May-18 16:39 33.180456 -117.836392 306 18418ft 382kts
04-May-18 16:40 33.244893 -117.936175 305 19843ft 388kts
04-May-18 16:41 33.312937 -118.035606 322 21097ft 397kts
04-May-18 16:42 33.420601 -118.051662 1 22088ft 410kts
04-May-18 16:43 33.532238 -118.050143 358 23029ft 415kts
04-May-18 16:44 33.646770 -118.051872 357 23900ft 419kts
04-May-18 16:45 33.761588 -118.054177 357 24684ft 424kts
04-May-18 16:46 33.865042 -118.099414 304 25312ft 414kts
04-May-18 16:47 33.899477 -118.226388 282 26240ft 410kts
04-May-18 16:48 33.914886 -118.361067 274 27146ft 412kts
04-May-18 16:49 33.956790 -118.487333 298 27887ft 420kts
04-May-18 16:50 34.012793 -118.609546 297 28598ft 423kts
04-May-18 16:51 34.064199 -118.728506 296 29214ft 426kts
04-May-18 16:52 34.115139 -118.846163 299 29722ft 430kts
04-May-18 16:53 34.167732 -118.966084 298 30279ft 431kts
04-May-18 16:54 34.219389 -119.085845 298 30737ft 432kts
04-May-18 16:55 34.273988 -119.213230 298 31133ft 435kts
04-May-18 16:56 34.329135 -119.342419 298 31999ft 425kts
04-May-18 16:57 34.379414 -119.460665 297 32157ft 431kts
04-May-18 16:58 34.434465 -119.590630 297 32156ft 441kts
04-May-18 16:59 34.487515 -119.718177 297 32156ft 443kts
04-May-18 17:00 34.539149 -119.852187 291 32164ft 443kts
04-May-18 17:01 34.627902 -119.948153 329 32156ft 444kts
04-May-18 17:02 34.732554 -120.025629 322 32156ft 446kts
04-May-18 17:03 34.827022 -120.121532 318 32169ft 448kts
04-May-18 17:04 34.918676 -120.221499 317 32201ft 449kts
04-May-18 17:05 35.010497 -120.323056 316 32207ft 448kts
04-May-18 17:06 35.100634 -120.423267 316 32199ft 447kts
04-May-18 17:07 35.188888 -120.520440 316 32183ft 447kts
04-May-18 17:08 35.277118 -120.618931 316 32179ft 446kts
04-May-18 17:08 35.349048 -120.700856 314 32175ft 441kts
04-May-18 17:09 35.430998 -120.794379 318 30579ft 426kts
04-May-18 17:11 35.533051 -120.903146 315 27926ft 413kts
04-May-18 17:12 35.615521 -120.995502 314 25828ft 401kts
04-May-18 17:13 35.696036 -121.086542 314 23694ft 391kts
04-May-18 17:14 35.774672 -121.175815 314 21659ft 382kts
04-May-18 17:14 35.838208 -121.248147 314 20009ft 375kts
04-May-18 17:15 35.913262 -121.333793 315 18091ft 366kts
04-May-18 17:16 35.986104 -121.417134 315 16264ft 358kts
04-May-18 17:17 36.054746 -121.495824 315 15347ft 326kts
04-May-18 17:18 36.117785 -121.546005 342 13911ft 323kts
04-May-18 17:19 36.199800 -121.576793 343 12530ft 310kts
04-May-18 17:20 36.274550 -121.604809 343 11290ft 300kts
04-May-18 17:21 36.351529 -121.633041 343 9938ft 292kts
04-May-18 17:22 36.424932 -121.657599 341 8936ft 274kts
04-May-18 17:23 36.496044 -121.681558 344 7554ft 250kts
04-May-18 17:24 36.547434 -121.722286 309 5283ft 201kts
04-May-18 17:25 36.565652 -121.774446 294 2712ft 164kts
04-May-18 17:26 36.579655 -121.822704 292 513ft 129kts
04-May-18 17:27 36.589561 -121.851941 292 264ft 26kts
04-May-18 17:28 36.589137 -121.852889 151 264ft 8kts
04-May-18 17:29 36.587803 -121.850014 105 264ft 0kts

Navigation Log

Ident Type
Flight plan parsing failed, navigation log unavailable